Terminal Aerodrome Forecast
Issued by NWS Pueblo, CO

Home | Current Version | Previous Version | Text Only | Print | Product List | Glossary On
Versions: 1 2 3 4 5 6 7 8 9 10 11 12 13 14 15 16 17 18 19 20 21 22 23 24 25 26 27 28 29
000
FTUS45 KPUB 201738
TAFCOS
TAF
KCOS 201738Z 2018/2118 35011KT P6SM FEW100
     FM202000 06013KT P6SM FEW100 SCT200
     FM210100 05008KT P6SM VCTS SCT050CB BKN100
     FM210900 06007KT P6SM -SHRA BKN020 OVC050
     FM211400 15007KT 5SM -SHRA BR BKN012 OVC040=

USA.gov is the U.S. government's official web portal to all federal, state and local government web resources and services.